sensor_id;sensor_type;location;lat;lon;timestamp;P1;durP1;ratioP1;P2;durP2;ratioP2
16514;SDS011;8370;52.556;7.970;2022-10-16T00:01:09;3.87;;;2.40;;
16514;SDS011;8370;52.556;7.970;2022-10-16T00:03:37;5.83;;;1.97;;
16514;SDS011;8370;52.556;7.970;2022-10-16T00:06:03;5.97;;;1.97;;
16514;SDS011;8370;52.556;7.970;2022-10-16T00:08:30;1.80;;;1.60;;
16514;SDS011;8370;52.556;7.970;2022-10-16T00:11:02;3.93;;;2.00;;
16514;SDS011;8370;52.556;7.970;2022-10-16T00:13:40;4.87;;;1.60;;
16514;SDS011;8370;52.556;7.970;2022-10-16T00:16:07;3.40;;;1.80;;
16514;SDS011;8370;52.556;7.970;2022-10-16T00:18:33;6.57;;;2.10;;
16514;SDS011;8370;52.556;7.970;2022-10-16T00:21:09;2.80;;;1.87;;
16514;SDS011;8370;52.556;7.970;2022-10-16T00:23:39;3.70;;;1.60;;
16514;SDS011;8370;52.556;7.970;2022-10-16T00:26:07;4.97;;;1.97;;
16514;SDS011;8370;52.556;7.970;2022-10-16T00:28:34;4.43;;;2.63;;
16514;SDS011;8370;52.556;7.970;2022-10-16T00:31:07;3.60;;;1.93;;
16514;SDS011;8370;52.556;7.970;2022-10-16T00:33:34;5.17;;;2.20;;
16514;SDS011;8370;52.556;7.970;2022-10-16T00:36:01;2.37;;;1.80;;
16514;SDS011;8370;52.556;7.970;2022-10-16T00:38:28;2.27;;;1.80;;
16514;SDS011;8370;52.556;7.970;2022-10-16T00:40:54;5.90;;;2.40;;
16514;SDS011;8370;52.556;7.970;2022-10-16T00:46:10;5.90;;;2.27;;
16514;SDS011;8370;52.556;7.970;2022-10-16T00:48:39;2.10;;;1.90;;
16514;SDS011;8370;52.556;7.970;2022-10-16T00:51:05;2.70;;;1.80;;
16514;SDS011;8370;52.556;7.970;2022-10-16T00:53:32;3.63;;;2.10;;
16514;SDS011;8370;52.556;7.970;2022-10-16T00:55:58;6.77;;;2.70;;
16514;SDS011;8370;52.556;7.970;2022-10-16T00:58:24;3.73;;;2.00;;
16514;SDS011;8370;52.556;7.970;2022-10-16T01:00:49;3.93;;;2.10;;
16514;SDS011;8370;52.556;7.970;2022-10-16T01:03:23;4.17;;;2.07;;
16514;SDS011;8370;52.556;7.970;2022-10-16T01:05:53;2.10;;;1.90;;
16514;SDS011;8370;52.556;7.970;2022-10-16T01:08:31;4.33;;;2.70;;
16514;SDS011;8370;52.556;7.970;2022-10-16T01:11:22;4.77;;;2.43;;
16514;SDS011;8370;52.556;7.970;2022-10-16T01:14:00;6.83;;;2.33;;
16514;SDS011;8370;52.556;7.970;2022-10-16T01:16:35;4.10;;;2.13;;
16514;SDS011;8370;52.556;7.970;2022-10-16T01:19:55;5.33;;;2.30;;
16514;SDS011;8370;52.556;7.970;2022-10-16T01:22:23;5.83;;;2.27;;
16514;SDS011;8370;52.556;7.970;2022-10-16T01:24:56;5.20;;;2.57;;
16514;SDS011;8370;52.556;7.970;2022-10-16T01:27:25;3.83;;;2.53;;
16514;SDS011;8370;52.556;7.970;2022-10-16T01:29:57;9.63;;;2.47;;
16514;SDS011;8370;52.556;7.970;2022-10-16T01:37:56;3.67;;;2.50;;
16514;SDS011;8370;52.556;7.970;2022-10-16T01:40:28;5.33;;;2.60;;
16514;SDS011;8370;52.556;7.970;2022-10-16T01:42:56;4.50;;;2.67;;
16514;SDS011;8370;52.556;7.970;2022-10-16T01:45:25;4.23;;;2.73;;
16514;SDS011;8370;52.556;7.970;2022-10-16T01:47:54;7.87;;;2.60;;
16514;SDS011;8370;52.556;7.970;2022-10-16T01:50:21;5.30;;;2.43;;
16514;SDS011;8370;52.556;7.970;2022-10-16T01:52:49;4.47;;;2.67;;
16514;SDS011;8370;52.556;7.970;2022-10-16T01:55:19;5.83;;;3.03;;
16514;SDS011;8370;52.556;7.970;2022-10-16T01:57:49;6.47;;;2.90;;
16514;SDS011;8370;52.556;7.970;2022-10-16T02:00:17;6.30;;;2.80;;
16514;SDS011;8370;52.556;7.970;2022-10-16T02:02:46;7.23;;;3.30;;
16514;SDS011;8370;52.556;7.970;2022-10-16T02:05:16;3.63;;;2.93;;
16514;SDS011;8370;52.556;7.970;2022-10-16T02:07:48;8.87;;;3.27;;
16514;SDS011;8370;52.556;7.970;2022-10-16T02:10:14;5.80;;;3.97;;
16514;SDS011;8370;52.556;7.970;2022-10-16T02:12:41;6.23;;;4.00;;
16514;SDS011;8370;52.556;7.970;2022-10-16T02:15:28;9.80;;;4.40;;
16514;SDS011;8370;52.556;7.970;2022-10-16T02:17:54;10.70;;;4.40;;
16514;SDS011;8370;52.556;7.970;2022-10-16T02:20:21;6.27;;;4.00;;
16514;SDS011;8370;52.556;7.970;2022-10-16T02:22:51;6.10;;;3.83;;
16514;SDS011;8370;52.556;7.970;2022-10-16T02:25:40;9.60;;;4.50;;
16514;SDS011;8370;52.556;7.970;2022-10-16T02:28:08;9.03;;;4.73;;
16514;SDS011;8370;52.556;7.970;2022-10-16T02:33:22;9.53;;;5.50;;
16514;SDS011;8370;52.556;7.970;2022-10-16T02:35:49;10.63;;;6.23;;
16514;SDS011;8370;52.556;7.970;2022-10-16T02:38:16;7.70;;;5.10;;
16514;SDS011;8370;52.556;7.970;2022-10-16T02:40:43;12.30;;;5.33;;
16514;SDS011;8370;52.556;7.970;2022-10-16T02:43:10;8.37;;;5.27;;
16514;SDS011;8370;52.556;7.970;2022-10-16T02:45:36;10.03;;;5.97;;
16514;SDS011;8370;52.556;7.970;2022-10-16T02:48:02;9.33;;;5.83;;
16514;SDS011;8370;52.556;7.970;2022-10-16T02:50:27;7.67;;;5.83;;
16514;SDS011;8370;52.556;7.970;2022-10-16T02:52:53;8.97;;;5.87;;
16514;SDS011;8370;52.556;7.970;2022-10-16T02:55:18;7.77;;;5.57;;
16514;SDS011;8370;52.556;7.970;2022-10-16T02:57:44;13.77;;;6.73;;
16514;SDS011;8370;52.556;7.970;2022-10-16T03:00:11;10.53;;;6.20;;
16514;SDS011;8370;52.556;7.970;2022-10-16T03:02:39;10.73;;;6.53;;
16514;SDS011;8370;52.556;7.970;2022-10-16T03:05:05;14.23;;;6.77;;
16514;SDS011;8370;52.556;7.970;2022-10-16T03:07:30;12.97;;;6.33;;
16514;SDS011;8370;52.556;7.970;2022-10-16T03:09:56;16.73;;;7.53;;
16514;SDS011;8370;52.556;7.970;2022-10-16T03:12:25;11.63;;;7.00;;
16514;SDS011;8370;52.556;7.970;2022-10-16T03:14:51;12.10;;;7.33;;
16514;SDS011;8370;52.556;7.970;2022-10-16T03:17:16;14.90;;;6.83;;
16514;SDS011;8370;52.556;7.970;2022-10-16T03:19:42;14.73;;;7.87;;
16514;SDS011;8370;52.556;7.970;2022-10-16T03:22:08;9.57;;;7.40;;
16514;SDS011;8370;52.556;7.970;2022-10-16T03:24:33;12.27;;;7.97;;
16514;SDS011;8370;52.556;7.970;2022-10-16T03:26:59;16.77;;;8.00;;
16514;SDS011;8370;52.556;7.970;2022-10-16T03:29:25;13.70;;;8.23;;
16514;SDS011;8370;52.556;7.970;2022-10-16T03:31:51;14.63;;;8.50;;
16514;SDS011;8370;52.556;7.970;2022-10-16T03:34:16;13.50;;;7.93;;
16514;SDS011;8370;52.556;7.970;2022-10-16T03:36:42;19.10;;;8.87;;
16514;SDS011;8370;52.556;7.970;2022-10-16T03:39:07;13.07;;;7.67;;
16514;SDS011;8370;52.556;7.970;2022-10-16T03:41:33;15.83;;;8.33;;
16514;SDS011;8370;52.556;7.970;2022-10-16T03:43:58;13.50;;;7.80;;
16514;SDS011;8370;52.556;7.970;2022-10-16T03:46:24;10.67;;;7.03;;
16514;SDS011;8370;52.556;7.970;2022-10-16T03:48:49;16.63;;;7.90;;
16514;SDS011;8370;52.556;7.970;2022-10-16T03:51:15;13.70;;;8.23;;
16514;SDS011;8370;52.556;7.970;2022-10-16T03:53:40;17.07;;;8.03;;
16514;SDS011;8370;52.556;7.970;2022-10-16T03:56:06;13.43;;;7.60;;
16514;SDS011;8370;52.556;7.970;2022-10-16T03:58:32;10.83;;;7.47;;
16514;SDS011;8370;52.556;7.970;2022-10-16T04:00:57;11.87;;;7.70;;
16514;SDS011;8370;52.556;7.970;2022-10-16T04:03:23;10.77;;;7.23;;
16514;SDS011;8370;52.556;7.970;2022-10-16T04:05:48;14.03;;;7.43;;
16514;SDS011;8370;52.556;7.970;2022-10-16T04:08:15;12.87;;;7.30;;
16514;SDS011;8370;52.556;7.970;2022-10-16T04:10:42;10.57;;;7.30;;
16514;SDS011;8370;52.556;7.970;2022-10-16T04:13:08;12.47;;;6.37;;
16514;SDS011;8370;52.556;7.970;2022-10-16T04:15:34;9.77;;;6.53;;
16514;SDS011;8370;52.556;7.970;2022-10-16T04:17:59;11.33;;;6.90;;
16514;SDS011;8370;52.556;7.970;2022-10-16T04:20:25;13.83;;;6.33;;
16514;SDS011;8370;52.556;7.970;2022-10-16T04:22:50;12.53;;;6.30;;
16514;SDS011;8370;52.556;7.970;2022-10-16T04:25:16;11.37;;;6.47;;
16514;SDS011;8370;52.556;7.970;2022-10-16T04:27:41;10.33;;;5.60;;
16514;SDS011;8370;52.556;7.970;2022-10-16T04:30:07;9.87;;;5.90;;
16514;SDS011;8370;52.556;7.970;2022-10-16T04:32:33;9.00;;;5.63;;
16514;SDS011;8370;52.556;7.970;2022-10-16T04:34:59;7.83;;;5.30;;
16514;SDS011;8370;52.556;7.970;2022-10-16T04:37:25;9.70;;;5.53;;
16514;SDS011;8370;52.556;7.970;2022-10-16T04:39:51;8.87;;;4.70;;
16514;SDS011;8370;52.556;7.970;2022-10-16T04:42:17;7.87;;;5.07;;
16514;SDS011;8370;52.556;7.970;2022-10-16T04:44:43;7.07;;;5.57;;
16514;SDS011;8370;52.556;7.970;2022-10-16T04:47:08;8.07;;;5.40;;
16514;SDS011;8370;52.556;7.970;2022-10-16T04:49:34;10.20;;;4.67;;
16514;SDS011;8370;52.556;7.970;2022-10-16T04:51:59;9.50;;;4.77;;
16514;SDS011;8370;52.556;7.970;2022-10-16T04:54:25;8.70;;;4.20;;
16514;SDS011;8370;52.556;7.970;2022-10-16T04:56:51;8.30;;;4.70;;
16514;SDS011;8370;52.556;7.970;2022-10-16T04:59:17;8.77;;;4.73;;
16514;SDS011;8370;52.556;7.970;2022-10-16T05:01:43;7.87;;;4.57;;
16514;SDS011;8370;52.556;7.970;2022-10-16T05:04:09;7.57;;;4.07;;
16514;SDS011;8370;52.556;7.970;2022-10-16T05:06:35;10.93;;;4.73;;
16514;SDS011;8370;52.556;7.970;2022-10-16T05:09:02;7.23;;;4.67;;
16514;SDS011;8370;52.556;7.970;2022-10-16T05:11:28;6.00;;;4.43;;
16514;SDS011;8370;52.556;7.970;2022-10-16T05:13:53;7.57;;;4.83;;
16514;SDS011;8370;52.556;7.970;2022-10-16T05:16:19;7.43;;;4.50;;
16514;SDS011;8370;52.556;7.970;2022-10-16T05:18:44;9.93;;;4.67;;
16514;SDS011;8370;52.556;7.970;2022-10-16T05:21:10;11.67;;;4.80;;
16514;SDS011;8370;52.556;7.970;2022-10-16T05:23:35;6.43;;;4.30;;
16514;SDS011;8370;52.556;7.970;2022-10-16T05:26:01;7.53;;;4.37;;
16514;SDS011;8370;52.556;7.970;2022-10-16T05:28:27;7.33;;;4.97;;
16514;SDS011;8370;52.556;7.970;2022-10-16T05:30:55;7.93;;;4.33;;
16514;SDS011;8370;52.556;7.970;2022-10-16T05:33:20;11.27;;;5.03;;
16514;SDS011;8370;52.556;7.970;2022-10-16T05:35:47;7.70;;;4.43;;
16514;SDS011;8370;52.556;7.970;2022-10-16T05:38:13;8.00;;;4.33;;
16514;SDS011;8370;52.556;7.970;2022-10-16T05:40:38;8.97;;;5.47;;
16514;SDS011;8370;52.556;7.970;2022-10-16T05:43:04;9.07;;;4.33;;
16514;SDS011;8370;52.556;7.970;2022-10-16T05:45:30;7.30;;;4.73;;
16514;SDS011;8370;52.556;7.970;2022-10-16T05:47:55;11.87;;;4.80;;
16514;SDS011;8370;52.556;7.970;2022-10-16T05:50:21;10.23;;;4.47;;
16514;SDS011;8370;52.556;7.970;2022-10-16T05:52:46;6.57;;;4.07;;
16514;SDS011;8370;52.556;7.970;2022-10-16T05:55:12;7.17;;;4.73;;
16514;SDS011;8370;52.556;7.970;2022-10-16T05:57:37;6.53;;;4.70;;
16514;SDS011;8370;52.556;7.970;2022-10-16T06:00:04;5.93;;;4.43;;
16514;SDS011;8370;52.556;7.970;2022-10-16T06:02:30;8.87;;;4.43;;
16514;SDS011;8370;52.556;7.970;2022-10-16T06:04:55;6.60;;;3.90;;
16514;SDS011;8370;52.556;7.970;2022-10-16T06:07:21;5.80;;;4.10;;
16514;SDS011;8370;52.556;7.970;2022-10-16T06:09:48;5.27;;;4.37;;
16514;SDS011;8370;52.556;7.970;2022-10-16T06:12:14;5.63;;;3.80;;
16514;SDS011;8370;52.556;7.970;2022-10-16T06:14:40;5.53;;;3.53;;
16514;SDS011;8370;52.556;7.970;2022-10-16T06:17:06;6.93;;;4.27;;
16514;SDS011;8370;52.556;7.970;2022-10-16T06:19:31;5.00;;;3.77;;
16514;SDS011;8370;52.556;7.970;2022-10-16T06:21:57;6.00;;;3.93;;
16514;SDS011;8370;52.556;7.970;2022-10-16T06:24:23;5.23;;;4.13;;
16514;SDS011;8370;52.556;7.970;2022-10-16T06:26:49;5.63;;;3.43;;
16514;SDS011;8370;52.556;7.970;2022-10-16T06:29:15;4.90;;;3.67;;
16514;SDS011;8370;52.556;7.970;2022-10-16T06:31:40;7.00;;;3.63;;
16514;SDS011;8370;52.556;7.970;2022-10-16T06:34:08;4.27;;;3.23;;
16514;SDS011;8370;52.556;7.970;2022-10-16T06:36:35;5.47;;;3.23;;
16514;SDS011;8370;52.556;7.970;2022-10-16T06:39:01;5.13;;;3.67;;
16514;SDS011;8370;52.556;7.970;2022-10-16T06:41:27;6.17;;;3.50;;
16514;SDS011;8370;52.556;7.970;2022-10-16T06:43:53;8.57;;;3.57;;
16514;SDS011;8370;52.556;7.970;2022-10-16T06:46:19;11.67;;;3.70;;
16514;SDS011;8370;52.556;7.970;2022-10-16T06:48:46;6.27;;;2.80;;
16514;SDS011;8370;52.556;7.970;2022-10-16T06:51:13;4.27;;;3.30;;
16514;SDS011;8370;52.556;7.970;2022-10-16T06:53:42;5.70;;;3.57;;
16514;SDS011;8370;52.556;7.970;2022-10-16T06:56:21;5.33;;;3.07;;
16514;SDS011;8370;52.556;7.970;2022-10-16T06:58:48;4.60;;;2.83;;
16514;SDS011;8370;52.556;7.970;2022-10-16T07:01:14;7.97;;;3.30;;
16514;SDS011;8370;52.556;7.970;2022-10-16T07:03:41;4.67;;;3.10;;
16514;SDS011;8370;52.556;7.970;2022-10-16T07:06:08;4.77;;;3.40;;
16514;SDS011;8370;52.556;7.970;2022-10-16T07:08:35;3.87;;;2.63;;
16514;SDS011;8370;52.556;7.970;2022-10-16T07:11:06;12.40;;;3.87;;
16514;SDS011;8370;52.556;7.970;2022-10-16T07:13:36;5.10;;;3.23;;
16514;SDS011;8370;52.556;7.970;2022-10-16T07:18:32;4.97;;;3.47;;
16514;SDS011;8370;52.556;7.970;2022-10-16T07:21:11;7.60;;;2.87;;
16514;SDS011;8370;52.556;7.970;2022-10-16T07:23:38;4.67;;;3.00;;
16514;SDS011;8370;52.556;7.970;2022-10-16T07:26:05;4.37;;;2.73;;
16514;SDS011;8370;52.556;7.970;2022-10-16T07:28:31;6.23;;;2.77;;
16514;SDS011;8370;52.556;7.970;2022-10-16T07:31:17;4.10;;;2.60;;
16514;SDS011;8370;52.556;7.970;2022-10-16T07:33:44;4.57;;;3.17;;
16514;SDS011;8370;52.556;7.970;2022-10-16T07:36:12;5.33;;;3.37;;
16514;SDS011;8370;52.556;7.970;2022-10-16T07:38:39;7.60;;;3.40;;
16514;SDS011;8370;52.556;7.970;2022-10-16T07:41:06;4.53;;;2.97;;
16514;SDS011;8370;52.556;7.970;2022-10-16T07:43:32;3.70;;;2.73;;
16514;SDS011;8370;52.556;7.970;2022-10-16T07:45:58;4.07;;;2.30;;
16514;SDS011;8370;52.556;7.970;2022-10-16T07:48:26;6.13;;;2.27;;
16514;SDS011;8370;52.556;7.970;2022-10-16T07:50:56;3.93;;;2.70;;
16514;SDS011;8370;52.556;7.970;2022-10-16T07:53:26;3.23;;;2.27;;
16514;SDS011;8370;52.556;7.970;2022-10-16T07:55:52;3.77;;;2.40;;
16514;SDS011;8370;52.556;7.970;2022-10-16T07:58:23;3.27;;;2.00;;
16514;SDS011;8370;52.556;7.970;2022-10-16T08:00:48;3.10;;;2.13;;
16514;SDS011;8370;52.556;7.970;2022-10-16T08:03:14;3.70;;;2.07;;
16514;SDS011;8370;52.556;7.970;2022-10-16T08:05:39;2.33;;;1.93;;
16514;SDS011;8370;52.556;7.970;2022-10-16T08:08:05;2.90;;;1.43;;
16514;SDS011;8370;52.556;7.970;2022-10-16T08:10:30;4.10;;;1.70;;
16514;SDS011;8370;52.556;7.970;2022-10-16T08:12:56;2.50;;;1.73;;
16514;SDS011;8370;52.556;7.970;2022-10-16T08:15:22;3.40;;;1.90;;
16514;SDS011;8370;52.556;7.970;2022-10-16T08:17:54;3.20;;;1.90;;
16514;SDS011;8370;52.556;7.970;2022-10-16T08:20:23;2.37;;;1.73;;
16514;SDS011;8370;52.556;7.970;2022-10-16T08:22:50;4.63;;;1.63;;
16514;SDS011;8370;52.556;7.970;2022-10-16T08:25:15;2.50;;;1.80;;
16514;SDS011;8370;52.556;7.970;2022-10-16T08:27:41;4.23;;;1.67;;
16514;SDS011;8370;52.556;7.970;2022-10-16T08:30:07;5.33;;;1.60;;
16514;SDS011;8370;52.556;7.970;2022-10-16T08:32:33;3.87;;;1.53;;
16514;SDS011;8370;52.556;7.970;2022-10-16T08:34:58;3.70;;;1.90;;
16514;SDS011;8370;52.556;7.970;2022-10-16T08:37:24;2.50;;;1.53;;
16514;SDS011;8370;52.556;7.970;2022-10-16T08:39:50;3.00;;;1.87;;
16514;SDS011;8370;52.556;7.970;2022-10-16T08:50:44;4.33;;;1.43;;
16514;SDS011;8370;52.556;7.970;2022-10-16T08:53:15;3.53;;;1.60;;
16514;SDS011;8370;52.556;7.970;2022-10-16T08:55:50;3.17;;;1.53;;
16514;SDS011;8370;52.556;7.970;2022-10-16T08:58:18;4.13;;;1.30;;
16514;SDS011;8370;52.556;7.970;2022-10-16T09:00:46;3.13;;;1.90;;
16514;SDS011;8370;52.556;7.970;2022-10-16T09:03:22;5.13;;;1.60;;
16514;SDS011;8370;52.556;7.970;2022-10-16T09:08:22;3.30;;;1.47;;
16514;SDS011;8370;52.556;7.970;2022-10-16T09:16:29;3.10;;;1.40;;
16514;SDS011;8370;52.556;7.970;2022-10-16T09:19:02;2.67;;;1.30;;
16514;SDS011;8370;52.556;7.970;2022-10-16T09:21:30;2.27;;;1.33;;
16514;SDS011;8370;52.556;7.970;2022-10-16T09:24:00;6.30;;;1.63;;
16514;SDS011;8370;52.556;7.970;2022-10-16T09:26:40;3.23;;;1.23;;
16514;SDS011;8370;52.556;7.970;2022-10-16T09:29:06;2.40;;;1.50;;
16514;SDS011;8370;52.556;7.970;2022-10-16T09:31:31;3.80;;;1.33;;
16514;SDS011;8370;52.556;7.970;2022-10-16T09:34:02;6.40;;;1.47;;
16514;SDS011;8370;52.556;7.970;2022-10-16T09:36:31;1.70;;;1.00;;
16514;SDS011;8370;52.556;7.970;2022-10-16T09:39:09;4.57;;;1.37;;
16514;SDS011;8370;52.556;7.970;2022-10-16T09:41:37;3.77;;;1.30;;
16514;SDS011;8370;52.556;7.970;2022-10-16T09:44:16;2.93;;;1.07;;
16514;SDS011;8370;52.556;7.970;2022-10-16T09:47:00;3.97;;;1.00;;
16514;SDS011;8370;52.556;7.970;2022-10-16T09:49:30;3.23;;;1.00;;
16514;SDS011;8370;52.556;7.970;2022-10-16T09:52:05;2.37;;;0.90;;
16514;SDS011;8370;52.556;7.970;2022-10-16T09:54:36;2.43;;;1.50;;
16514;SDS011;8370;52.556;7.970;2022-10-16T09:57:06;4.63;;;1.30;;
16514;SDS011;8370;52.556;7.970;2022-10-16T09:59:32;2.17;;;0.97;;
16514;SDS011;8370;52.556;7.970;2022-10-16T10:02:01;2.90;;;0.87;;
16514;SDS011;8370;52.556;7.970;2022-10-16T10:04:36;4.50;;;1.23;;
16514;SDS011;8370;52.556;7.970;2022-10-16T10:07:05;2.17;;;0.90;;
16514;SDS011;8370;52.556;7.970;2022-10-16T10:09:42;2.03;;;1.10;;
16514;SDS011;8370;52.556;7.970;2022-10-16T10:12:23;2.87;;;0.93;;
16514;SDS011;8370;52.556;7.970;2022-10-16T10:14:51;3.90;;;1.00;;
16514;SDS011;8370;52.556;7.970;2022-10-16T10:19:46;3.20;;;1.10;;
16514;SDS011;8370;52.556;7.970;2022-10-16T10:24:55;4.57;;;1.07;;
16514;SDS011;8370;52.556;7.970;2022-10-16T10:27:23;2.00;;;1.13;;
16514;SDS011;8370;52.556;7.970;2022-10-16T10:35:50;2.70;;;0.80;;
16514;SDS011;8370;52.556;7.970;2022-10-16T10:38:25;5.57;;;1.00;;
16514;SDS011;8370;52.556;7.970;2022-10-16T10:41:05;2.50;;;0.97;;
16514;SDS011;8370;52.556;7.970;2022-10-16T10:46:41;2.83;;;1.23;;
16514;SDS011;8370;52.556;7.970;2022-10-16T10:54:16;2.53;;;1.08;;
16514;SDS011;8370;52.556;7.970;2022-10-16T10:56:52;3.58;;;1.00;;
16514;SDS011;8370;52.556;7.970;2022-10-16T10:59:39;6.28;;;1.38;;
16514;SDS011;8370;52.556;7.970;2022-10-16T11:04:49;2.38;;;0.90;;
16514;SDS011;8370;52.556;7.970;2022-10-16T11:13:15;5.13;;;1.08;;
16514;SDS011;8370;52.556;7.970;2022-10-16T11:15:51;4.50;;;1.15;;
16514;SDS011;8370;52.556;7.970;2022-10-16T11:18:27;3.60;;;0.90;;
16514;SDS011;8370;52.556;7.970;2022-10-16T11:21:05;2.58;;;0.90;;
16514;SDS011;8370;52.556;7.970;2022-10-16T11:26:25;3.33;;;0.80;;
16514;SDS011;8370;52.556;7.970;2022-10-16T11:28:54;3.33;;;1.00;;
16514;SDS011;8370;52.556;7.970;2022-10-16T11:31:41;5.35;;;1.33;;
16514;SDS011;8370;52.556;7.970;2022-10-16T11:34:17;4.78;;;1.00;;
16514;SDS011;8370;52.556;7.970;2022-10-16T11:39:35;4.43;;;1.02;;
16514;SDS011;8370;52.556;7.970;2022-10-16T11:42:22;1.77;;;0.90;;
16514;SDS011;8370;52.556;7.970;2022-10-16T11:45:00;4.05;;;0.80;;
16514;SDS011;8370;52.556;7.970;2022-10-16T11:47:51;4.93;;;1.30;;
16514;SDS011;8370;52.556;7.970;2022-10-16T11:50:29;3.35;;;0.90;;
16514;SDS011;8370;52.556;7.970;2022-10-16T11:53:16;5.93;;;0.90;;
16514;SDS011;8370;52.556;7.970;2022-10-16T11:55:56;3.22;;;1.10;;
16514;SDS011;8370;52.556;7.970;2022-10-16T12:01:01;5.65;;;1.50;;
16514;SDS011;8370;52.556;7.970;2022-10-16T12:06:37;4.95;;;1.35;;
16514;SDS011;8370;52.556;7.970;2022-10-16T12:09:24;5.72;;;1.35;;
16514;SDS011;8370;52.556;7.970;2022-10-16T12:11:52;4.35;;;1.70;;
16514;SDS011;8370;52.556;7.970;2022-10-16T12:14:37;8.23;;;1.48;;
16514;SDS011;8370;52.556;7.970;2022-10-16T12:17:22;4.07;;;1.20;;
16514;SDS011;8370;52.556;7.970;2022-10-16T12:19:57;5.65;;;1.13;;
16514;SDS011;8370;52.556;7.970;2022-10-16T12:22:47;7.25;;;1.42;;
16514;SDS011;8370;52.556;7.970;2022-10-16T12:25:21;6.68;;;1.20;;
16514;SDS011;8370;52.556;7.970;2022-10-16T12:30:23;4.93;;;1.10;;
16514;SDS011;8370;52.556;7.970;2022-10-16T12:32:57;4.40;;;1.20;;
16514;SDS011;8370;52.556;7.970;2022-10-16T12:35:49;3.58;;;1.05;;
16514;SDS011;8370;52.556;7.970;2022-10-16T12:38:20;4.15;;;1.38;;
16514;SDS011;8370;52.556;7.970;2022-10-16T12:41:07;8.02;;;1.92;;
16514;SDS011;8370;52.556;7.970;2022-10-16T12:43:46;5.55;;;1.55;;
16514;SDS011;8370;52.556;7.970;2022-10-16T12:48:38;6.53;;;1.85;;
16514;SDS011;8370;52.556;7.970;2022-10-16T12:51:09;7.95;;;1.70;;
16514;SDS011;8370;52.556;7.970;2022-10-16T12:53:59;6.22;;;1.38;;
16514;SDS011;8370;52.556;7.970;2022-10-16T12:56:36;6.90;;;1.58;;
16514;SDS011;8370;52.556;7.970;2022-10-16T13:07:40;6.32;;;1.67;;
16514;SDS011;8370;52.556;7.970;2022-10-16T13:10:31;5.88;;;1.67;;
16514;SDS011;8370;52.556;7.970;2022-10-16T13:13:10;8.73;;;2.88;;
16514;SDS011;8370;52.556;7.970;2022-10-16T13:15:52;4.13;;;1.80;;
16514;SDS011;8370;52.556;7.970;2022-10-16T13:18:36;5.18;;;2.00;;
16514;SDS011;8370;52.556;7.970;2022-10-16T13:24:42;7.60;;;2.17;;
16514;SDS011;8370;52.556;7.970;2022-10-16T13:30:12;6.45;;;2.05;;
16514;SDS011;8370;52.556;7.970;2022-10-16T13:32:46;5.45;;;2.20;;
16514;SDS011;8370;52.556;7.970;2022-10-16T13:35:25;6.63;;;2.20;;
16514;SDS011;8370;52.556;7.970;2022-10-16T13:38:04;5.13;;;1.63;;
16514;SDS011;8370;52.556;7.970;2022-10-16T13:40:36;8.48;;;2.20;;
16514;SDS011;8370;52.556;7.970;2022-10-16T13:43:12;8.40;;;1.88;;
16514;SDS011;8370;52.556;7.970;2022-10-16T13:45:38;3.05;;;1.10;;
16514;SDS011;8370;52.556;7.970;2022-10-16T13:48:09;13.18;;;2.10;;
16514;SDS011;8370;52.556;7.970;2022-10-16T13:50:37;2.53;;;1.10;;
16514;SDS011;8370;52.556;7.970;2022-10-16T13:53:06;7.78;;;1.73;;
16514;SDS011;8370;52.556;7.970;2022-10-16T13:55:37;7.65;;;1.60;;
16514;SDS011;8370;52.556;7.970;2022-10-16T13:58:13;3.35;;;1.20;;
16514;SDS011;8370;52.556;7.970;2022-10-16T14:00:40;4.13;;;1.20;;
16514;SDS011;8370;52.556;7.970;2022-10-16T14:03:17;4.10;;;1.20;;
16514;SDS011;8370;52.556;7.970;2022-10-16T14:05:49;4.22;;;1.35;;
16514;SDS011;8370;52.556;7.970;2022-10-16T14:08:16;4.97;;;1.73;;
16514;SDS011;8370;52.556;7.970;2022-10-16T14:10:42;8.30;;;1.50;;
16514;SDS011;8370;52.556;7.970;2022-10-16T14:13:15;8.07;;;1.40;;
16514;SDS011;8370;52.556;7.970;2022-10-16T14:15:46;5.07;;;1.75;;
16514;SDS011;8370;52.556;7.970;2022-10-16T14:18:16;3.25;;;1.35;;
16514;SDS011;8370;52.556;7.970;2022-10-16T14:20:50;3.92;;;1.20;;
16514;SDS011;8370;52.556;7.970;2022-10-16T14:23:23;7.55;;;1.17;;
16514;SDS011;8370;52.556;7.970;2022-10-16T14:26:05;6.10;;;1.30;;
16514;SDS011;8370;52.556;7.970;2022-10-16T14:28:42;4.75;;;1.15;;
16514;SDS011;8370;52.556;7.970;2022-10-16T14:33:55;8.65;;;1.40;;
16514;SDS011;8370;52.556;7.970;2022-10-16T14:36:21;4.60;;;1.42;;
16514;SDS011;8370;52.556;7.970;2022-10-16T14:38:59;6.00;;;1.08;;
16514;SDS011;8370;52.556;7.970;2022-10-16T14:41:30;4.78;;;1.75;;
16514;SDS011;8370;52.556;7.970;2022-10-16T14:44:05;2.85;;;1.05;;
16514;SDS011;8370;52.556;7.970;2022-10-16T14:46:33;5.63;;;1.48;;
16514;SDS011;8370;52.556;7.970;2022-10-16T14:49:02;5.50;;;1.00;;
16514;SDS011;8370;52.556;7.970;2022-10-16T14:51:38;4.50;;;1.10;;
16514;SDS011;8370;52.556;7.970;2022-10-16T14:54:10;5.75;;;1.42;;
16514;SDS011;8370;52.556;7.970;2022-10-16T14:56:45;6.30;;;1.08;;
16514;SDS011;8370;52.556;7.970;2022-10-16T14:59:14;3.05;;;1.13;;
16514;SDS011;8370;52.556;7.970;2022-10-16T15:01:53;2.53;;;0.90;;
16514;SDS011;8370;52.556;7.970;2022-10-16T15:04:19;6.05;;;1.30;;
16514;SDS011;8370;52.556;7.970;2022-10-16T15:06:44;6.43;;;1.50;;
16514;SDS011;8370;52.556;7.970;2022-10-16T15:09:10;8.63;;;1.67;;
16514;SDS011;8370;52.556;7.970;2022-10-16T15:11:36;5.43;;;1.40;;
16514;SDS011;8370;52.556;7.970;2022-10-16T15:14:02;5.37;;;1.20;;
16514;SDS011;8370;52.556;7.970;2022-10-16T15:16:28;4.97;;;1.10;;
16514;SDS011;8370;52.556;7.970;2022-10-16T15:18:54;4.53;;;1.13;;
16514;SDS011;8370;52.556;7.970;2022-10-16T15:21:22;5.07;;;1.27;;
16514;SDS011;8370;52.556;7.970;2022-10-16T15:23:51;4.72;;;1.52;;
16514;SDS011;8370;52.556;7.970;2022-10-16T15:26:17;5.10;;;1.70;;
16514;SDS011;8370;52.556;7.970;2022-10-16T15:28:42;3.50;;;1.17;;
16514;SDS011;8370;52.556;7.970;2022-10-16T15:31:08;4.10;;;1.10;;
16514;SDS011;8370;52.556;7.970;2022-10-16T15:33:33;7.70;;;1.42;;
16514;SDS011;8370;52.556;7.970;2022-10-16T15:36:00;3.85;;;0.90;;
16514;SDS011;8370;52.556;7.970;2022-10-16T15:38:27;3.77;;;0.93;;
16514;SDS011;8370;52.556;7.970;2022-10-16T15:40:53;2.55;;;0.80;;
16514;SDS011;8370;52.556;7.970;2022-10-16T15:43:19;6.13;;;1.13;;
16514;SDS011;8370;52.556;7.970;2022-10-16T15:45:47;8.75;;;1.92;;
16514;SDS011;8370;52.556;7.970;2022-10-16T15:48:27;4.55;;;1.40;;
16514;SDS011;8370;52.556;7.970;2022-10-16T15:50:53;7.07;;;1.13;;
16514;SDS011;8370;52.556;7.970;2022-10-16T15:53:19;5.73;;;1.13;;
16514;SDS011;8370;52.556;7.970;2022-10-16T15:55:44;6.27;;;1.30;;
16514;SDS011;8370;52.556;7.970;2022-10-16T15:58:10;4.13;;;1.40;;
16514;SDS011;8370;52.556;7.970;2022-10-16T16:00:35;6.83;;;1.40;;
16514;SDS011;8370;52.556;7.970;2022-10-16T16:03:01;5.77;;;1.00;;
16514;SDS011;8370;52.556;7.970;2022-10-16T16:05:27;7.57;;;1.50;;
16514;SDS011;8370;52.556;7.970;2022-10-16T16:07:52;4.90;;;1.40;;
16514;SDS011;8370;52.556;7.970;2022-10-16T16:10:18;9.50;;;1.40;;
16514;SDS011;8370;52.556;7.970;2022-10-16T16:12:46;5.03;;;1.20;;
16514;SDS011;8370;52.556;7.970;2022-10-16T16:15:16;8.90;;;1.10;;
16514;SDS011;8370;52.556;7.970;2022-10-16T16:17:42;7.43;;;1.33;;
16514;SDS011;8370;52.556;7.970;2022-10-16T16:20:09;5.83;;;1.20;;
16514;SDS011;8370;52.556;7.970;2022-10-16T16:22:35;6.03;;;1.20;;
16514;SDS011;8370;52.556;7.970;2022-10-16T16:25:01;7.17;;;1.30;;
16514;SDS011;8370;52.556;7.970;2022-10-16T16:27:26;6.43;;;1.40;;
16514;SDS011;8370;52.556;7.970;2022-10-16T16:29:54;11.37;;;1.23;;
16514;SDS011;8370;52.556;7.970;2022-10-16T16:32:20;5.17;;;1.60;;
16514;SDS011;8370;52.556;7.970;2022-10-16T16:34:46;10.43;;;1.30;;
16514;SDS011;8370;52.556;7.970;2022-10-16T16:37:12;6.03;;;1.33;;
16514;SDS011;8370;52.556;7.970;2022-10-16T16:39:37;6.87;;;1.27;;
16514;SDS011;8370;52.556;7.970;2022-10-16T16:42:03;8.03;;;1.20;;
16514;SDS011;8370;52.556;7.970;2022-10-16T16:44:31;8.50;;;1.30;;
16514;SDS011;8370;52.556;7.970;2022-10-16T16:46:56;6.53;;;1.30;;